Time;durP1;ratioP1;P1;durP2;ratioP2;P2;SDS_P1;SDS_P2;PMS_P1;PMS_P2;Temp;Humidity;BMP_temperature;BMP_pressure;BME280_temperature;BME280_humidity;BME280_pressure;Samples;Min_cycle;Max_cycle;Signal;HPM_P1;HPM_P2
2021/12/22 00:01:01;;;;;;;42.53;25.70;;;1.20;99.90;;;;;;5035028;28;20051;-58
2021/12/22 00:03:47;;;;;;;46.90;24.67;;;1.20;99.90;;;;;;5038510;28;20452;-57
2021/12/22 00:06:33;;;;;;;39.25;25.90;;;1.20;99.90;;;;;;5053064;28;20098;-58
2021/12/22 00:09:18;;;;;;;44.22;26.55;;;1.30;99.90;;;;;;5047518;28;20523;-58
2021/12/22 00:12:03;;;;;;;44.60;25.55;;;1.30;99.90;;;;;;5034892;28;20043;-57
2021/12/22 00:14:47;;;;;;;40.33;26.10;;;1.20;99.90;;;;;;5045143;28;20064;-55
2021/12/22 00:17:31;;;;;;;44.35;25.85;;;1.00;99.90;;;;;;5035124;28;20036;-55
2021/12/22 00:20:15;;;;;;;47.03;26.30;;;1.00;99.90;;;;;;5034069;28;20032;-55
2021/12/22 00:23:00;;;;;;;45.00;27.00;;;1.00;99.90;;;;;;5049180;28;20048;-59
2021/12/22 00:25:44;;;;;;;45.27;26.77;;;1.00;99.90;;;;;;5054780;28;20083;-60
2021/12/22 00:28:28;;;;;;;46.15;25.90;;;1.00;99.90;;;;;;5054927;28;20121;-58
2021/12/22 00:31:14;;;;;;;47.22;26.02;;;1.00;99.90;;;;;;5034307;28;20141;-58
2021/12/22 00:33:58;;;;;;;42.97;25.70;;;1.10;99.90;;;;;;5034271;28;20092;-55
2021/12/22 00:36:44;;;;;;;44.88;25.63;;;1.10;99.90;;;;;;5019376;28;20095;-56
2021/12/22 00:39:28;;;;;;;49.78;27.38;;;1.10;99.90;;;;;;5034666;28;20064;-57
2021/12/22 00:42:13;;;;;;;47.80;26.33;;;1.00;99.90;;;;;;5034602;28;20044;-59
2021/12/22 00:44:58;;;;;;;47.78;26.65;;;1.00;99.90;;;;;;5034431;28;20558;-57
2021/12/22 00:47:43;;;;;;;55.17;27.38;;;0.90;99.90;;;;;;5042331;28;20032;-57
2021/12/22 00:50:27;;;;;;;54.53;27.73;;;0.90;99.90;;;;;;5051505;28;20102;-58
2021/12/22 00:53:11;;;;;;;56.20;28.33;;;0.80;99.90;;;;;;5051746;28;20040;-58
2021/12/22 00:55:55;;;;;;;56.33;26.75;;;0.80;99.90;;;;;;5038388;28;20463;-59
2021/12/22 00:58:39;;;;;;;59.20;28.35;;;0.80;99.90;;;;;;5045937;28;20028;-57
2021/12/22 01:01:23;;;;;;;53.95;28.20;;;0.80;99.90;;;;;;5050824;28;20040;-57
2021/12/22 01:04:07;;;;;;;59.83;28.88;;;0.90;99.90;;;;;;5053491;28;20136;-57
2021/12/22 01:06:52;;;;;;;58.47;28.48;;;0.90;99.90;;;;;;5051507;28;20506;-57
2021/12/22 01:09:36;;;;;;;58.50;28.23;;;1.00;99.90;;;;;;5046571;28;20051;-57
2021/12/22 01:12:21;;;;;;;59.05;28.30;;;0.90;99.90;;;;;;5034848;28;20120;-56
2021/12/22 01:15:11;;;;;;;61.67;27.33;;;0.90;99.90;;;;;;5050721;28;20057;-57
2021/12/22 01:18:03;;;;;;;63.67;29.25;;;0.90;99.90;;;;;;5052921;28;20078;-57
2021/12/22 01:20:59;;;;;;;66.43;31.25;;;0.80;99.90;;;;;;5051118;28;20387;-58
2021/12/22 01:24:13;;;;;;;67.57;29.95;;;0.90;99.90;;;;;;5050098;28;20419;-57
2021/12/22 01:27:04;;;;;;;66.55;30.33;;;0.90;99.90;;;;;;5037338;28;20048;-57
2021/12/22 01:29:49;;;;;;;75.25;31.48;;;0.70;99.90;;;;;;5044268;28;20087;-58
2021/12/22 01:32:36;;;;;;;72.18;32.35;;;0.60;99.90;;;;;;5043946;28;20032;-57
2021/12/22 01:35:24;;;;;;;68.43;30.17;;;0.60;99.90;;;;;;5043591;28;20515;-56
2021/12/22 01:38:09;;;;;;;70.80;31.23;;;0.60;99.90;;;;;;5038570;28;20507;-53
2021/12/22 01:40:54;;;;;;;;;;;0.60;99.90;;;;;;5045301;28;20032;-53
2021/12/22 01:43:38;;;;;;;61.67;29.10;;;0.50;99.90;;;;;;5048945;28;19970;-51
2021/12/22 01:49:50;;;;;;;69.13;29.27;;;0.70;99.90;;;;;;5050514;28;20446;-50
2021/12/22 01:52:34;;;;;;;59.25;29.42;;;0.80;99.90;;;;;;5034883;28;20078;-52
2021/12/22 01:55:36;;;;;;;117.38;52.63;;;0.60;99.90;;;;;;5042704;28;20039;-51
2021/12/22 01:58:31;;;;;;;100.32;44.95;;;0.60;99.90;;;;;;5038337;28;20039;-57
2021/12/22 02:01:16;;;;;;;;;;;0.60;99.90;;;;;;5033397;28;20040;-51
2021/12/22 02:04:01;;;;;;;74.55;33.10;;;0.60;99.90;;;;;;5038542;28;19931;-52
2021/12/22 02:06:48;;;;;;;65.65;29.10;;;0.60;99.90;;;;;;5053438;28;20046;-51
2021/12/22 02:12:40;;;;;;;61.95;28.90;;;0.60;99.90;;;;;;5033325;28;20036;-51
2021/12/22 02:15:29;;;;;;;72.45;29.70;;;0.50;99.90;;;;;;5033451;28;20037;-54
2021/12/22 02:18:19;;;;;;;59.33;28.33;;;0.50;99.90;;;;;;5033447;28;20078;-55
2021/12/22 02:21:05;;;;;;;61.53;26.92;;;0.50;99.90;;;;;;5033404;28;20450;-52
2021/12/22 02:23:49;;;;;;;59.55;27.65;;;0.50;99.90;;;;;;5032661;28;20032;-54
2021/12/22 02:29:23;;;;;;;64.22;28.27;;;0.60;99.90;;;;;;5022228;28;20036;-51
2021/12/22 02:32:22;;;;;;;67.93;30.20;;;0.60;99.90;;;;;;5037005;28;20113;-56
2021/12/22 02:35:07;;;;;;;61.30;27.88;;;0.60;99.90;;;;;;5024427;28;20156;-49
2021/12/22 02:37:51;;;;;;;67.78;28.77;;;0.60;99.90;;;;;;5037226;28;20037;-54
2021/12/22 02:40:38;;;;;;;63.25;27.73;;;0.60;99.90;;;;;;5037508;28;20111;-57
2021/12/22 02:43:30;;;;;;;70.05;30.00;;;0.60;99.90;;;;;;5021407;28;20416;-54
2021/12/22 02:46:17;;;;;;;54.33;28.23;;;0.50;99.90;;;;;;5036923;28;20036;-55
2021/12/22 02:49:05;;;;;;;58.80;29.17;;;0.40;99.90;;;;;;5037385;28;20048;-54
2021/12/22 02:51:49;;;;;;;60.03;27.55;;;0.30;99.90;;;;;;5022451;28;20043;-56
2021/12/22 02:54:40;;;;;;;62.00;28.20;;;0.30;99.90;;;;;;5036201;28;20072;-50
2021/12/22 02:57:32;;;;;;;56.85;27.40;;;0.30;99.90;;;;;;5022081;28;20492;-55
2021/12/22 03:03:30;;;;;;;54.95;26.67;;;0.30;99.90;;;;;;5057081;28;20031;-54
2021/12/22 03:06:23;;;;;;;56.75;28.13;;;0.20;99.90;;;;;;5037919;28;20562;-55
2021/12/22 03:09:19;;;;;;;57.70;25.38;;;0.10;99.90;;;;;;5037199;28;20037;-54
2021/12/22 03:12:05;;;;;;;45.80;24.60;;;0.20;99.90;;;;;;5052509;28;20044;-53
2021/12/22 03:14:49;;;;;;;51.13;26.00;;;0.30;99.90;;;;;;5058185;28;20068;-57
2021/12/22 03:17:34;;;;;;;59.67;26.23;;;0.30;99.90;;;;;;5059631;28;20127;-52
2021/12/22 03:20:18;;;;;;;54.78;27.10;;;0.20;99.90;;;;;;5042848;28;20099;-56
2021/12/22 03:23:04;;;;;;;51.17;26.02;;;0.10;99.90;;;;;;5056025;28;20650;-51
2021/12/22 03:25:48;;;;;;;54.92;25.38;;;0.10;99.90;;;;;;5041141;28;20571;-55
2021/12/22 03:28:32;;;;;;;56.88;27.52;;;0.10;99.90;;;;;;5035617;28;20063;-56
2021/12/22 03:31:17;;;;;;;47.50;25.10;;;0.00;99.90;;;;;;5035923;28;20036;-55
2021/12/22 03:34:00;;;;;;;49.33;24.55;;;0.10;99.90;;;;;;5035755;28;20040;-55
2021/12/22 03:36:45;;;;;;;47.90;25.83;;;0.10;99.90;;;;;;5035497;28;20042;-54
2021/12/22 03:39:29;;;;;;;47.63;24.55;;;0.10;99.90;;;;;;5035644;28;20043;-54
2021/12/22 03:42:13;;;;;;;52.63;26.17;;;0.10;99.90;;;;;;5035881;28;20105;-52
2021/12/22 03:44:57;;;;;;;46.67;24.35;;;0.10;99.90;;;;;;5035925;28;20041;-56
2021/12/22 03:47:41;;;;;;;48.97;25.30;;;0.00;99.90;;;;;;5035937;28;20083;-55
2021/12/22 03:50:25;;;;;;;49.10;24.75;;;0.00;99.90;;;;;;5040557;28;20542;-53
2021/12/22 03:53:10;;;;;;;50.45;25.45;;;-0.10;99.90;;;;;;5040339;28;20110;-56
2021/12/22 03:55:54;;;;;;;48.97;25.05;;;-0.10;99.90;;;;;;5040582;28;20040;-51
2021/12/22 03:58:38;;;;;;;48.80;24.70;;;0.00;99.90;;;;;;5055332;28;20437;-51
2021/12/22 04:01:22;;;;;;;50.53;23.55;;;0.00;99.90;;;;;;5055249;28;20044;-55
2021/12/22 04:04:13;;;;;;;47.80;24.23;;;0.10;99.90;;;;;;5045528;28;20084;-54
2021/12/22 04:06:57;;;;;;;46.30;24.00;;;0.00;99.90;;;;;;5046112;28;20032;-50
2021/12/22 04:09:41;;;;;;;39.65;23.00;;;0.00;99.90;;;;;;5046107;28;20040;-49
2021/12/22 04:12:25;;;;;;;40.00;23.65;;;-0.10;99.90;;;;;;5035522;28;20052;-54
2021/12/22 04:15:09;;;;;;;47.53;24.48;;;-0.10;99.90;;;;;;5046329;28;20039;-51
2021/12/22 04:17:54;;;;;;;43.77;24.43;;;-0.10;99.90;;;;;;5051366;28;20032;-54
2021/12/22 04:20:39;;;;;;;;;;;-0.20;99.90;;;;;;5053969;28;20028;-56
2021/12/22 04:23:23;;;;;;;41.20;21.45;;;-0.10;99.90;;;;;;5049853;28;19965;-57
2021/12/22 04:26:07;;;;;;;41.60;24.58;;;-0.10;99.90;;;;;;5043562;28;20514;-57
2021/12/22 04:28:51;;;;;;;41.03;21.52;;;-0.10;99.90;;;;;;5045534;28;20048;-52
2021/12/22 04:31:35;;;;;;;36.15;20.20;;;-0.10;99.90;;;;;;5045719;28;20068;-53
2021/12/22 04:34:19;;;;;;;40.10;22.52;;;-0.10;99.90;;;;;;5034449;28;20062;-51
2021/12/22 04:37:04;;;;;;;38.30;21.93;;;-0.20;99.90;;;;;;5035551;28;20032;-52
2021/12/22 04:39:48;;;;;;;38.53;21.10;;;-0.20;99.90;;;;;;5035516;28;20121;-54
2021/12/22 04:42:32;;;;;;;35.88;20.42;;;-0.20;99.90;;;;;;5033752;28;20041;-55
2021/12/22 04:45:17;;;;;;;42.65;22.42;;;-0.30;99.90;;;;;;5035757;28;20191;-56
2021/12/22 04:48:01;;;;;;;39.67;21.15;;;-0.30;99.90;;;;;;5035450;28;20040;-54
2021/12/22 04:50:46;;;;;;;34.05;21.55;;;-0.30;99.90;;;;;;5048394;28;20036;-55
2021/12/22 04:53:39;;;;;;;38.35;21.50;;;-0.40;99.90;;;;;;5055525;28;20053;-54
2021/12/22 04:56:24;;;;;;;37.13;20.90;;;-0.40;99.90;;;;;;5054623;28;20032;-52
2021/12/22 04:59:09;;;;;;;38.20;20.75;;;-0.40;99.90;;;;;;5054605;28;20040;-51
2021/12/22 05:01:56;;;;;;;35.10;20.85;;;-0.40;99.90;;;;;;5054063;28;20404;-54
2021/12/22 05:04:40;;;;;;;36.83;21.08;;;-0.50;99.90;;;;;;5038758;28;20562;-51
2021/12/22 05:07:24;;;;;;;39.22;21.50;;;-0.50;99.90;;;;;;5054672;28;20040;-51
2021/12/22 05:10:09;;;;;;;37.65;21.10;;;-0.50;99.90;;;;;;5039820;28;20048;-52
2021/12/22 05:12:53;;;;;;;;;;;-0.50;99.90;;;;;;5054674;28;20171;-51
2021/12/22 05:15:39;;;;;;;38.40;20.45;;;-0.50;99.90;;;;;;5054652;28;19954;-51
2021/12/22 05:18:35;;;;;;;35.05;21.55;;;-0.50;99.90;;;;;;5054610;28;20396;-52
2021/12/22 05:21:21;;;;;;;33.17;20.42;;;-0.50;99.90;;;;;;5041961;28;20469;-51
2021/12/22 05:24:06;;;;;;;37.58;21.30;;;-0.50;99.90;;;;;;5054368;28;20684;-50
2021/12/22 05:26:50;;;;;;;65.65;33.10;;;-0.60;99.90;;;;;;5039168;28;20117;-52
2021/12/22 05:29:34;;;;;;;38.67;22.42;;;-0.60;99.90;;;;;;5053885;28;20171;-52
2021/12/22 05:32:20;;;;;;;34.30;21.05;;;-0.60;99.90;;;;;;5054259;28;20064;-52
2021/12/22 05:35:07;;;;;;;32.38;20.27;;;-0.70;99.90;;;;;;5054173;28;20136;-55
2021/12/22 05:37:51;;;;;;;38.78;20.17;;;-0.70;99.90;;;;;;5054241;28;20036;-52
2021/12/22 05:40:35;;;;;;;34.35;19.17;;;-0.70;99.90;;;;;;5054501;28;20485;-48
2021/12/22 05:43:20;;;;;;;33.40;21.98;;;-0.70;99.90;;;;;;5054146;28;20048;-51
2021/12/22 05:46:04;;;;;;;37.53;20.88;;;-0.70;99.90;;;;;;5037581;28;20079;-54
2021/12/22 05:48:49;;;;;;;39.03;21.45;;;-0.70;99.90;;;;;;5049035;28;20052;-48
2021/12/22 05:51:34;;;;;;;;;;;-0.70;99.90;;;;;;5053568;28;20083;-52
2021/12/22 05:54:18;;;;;;;34.85;18.95;;;-0.70;99.90;;;;;;5052789;28;19935;-54
2021/12/22 05:57:03;;;;;;;31.98;19.90;;;-0.70;99.90;;;;;;5052506;28;20048;-53
2021/12/22 05:59:47;;;;;;;36.67;21.77;;;-0.80;99.90;;;;;;5053388;28;20036;-56
2021/12/22 06:02:31;;;;;;;36.03;22.23;;;-0.90;99.90;;;;;;5053411;28;20275;-58
2021/12/22 06:05:18;;;;;;;36.00;19.63;;;-0.90;99.90;;;;;;5039785;28;20060;-58
2021/12/22 06:08:03;;;;;;;33.58;20.83;;;-0.90;99.90;;;;;;5054700;28;20036;-55
2021/12/22 06:10:48;;;;;;;36.88;19.73;;;-0.90;99.90;;;;;;5039885;28;20032;-53
2021/12/22 06:13:32;;;;;;;31.57;19.90;;;-1.10;99.90;;;;;;5055046;28;20063;-53
2021/12/22 06:16:16;;;;;;;34.05;20.45;;;-1.40;99.90;;;;;;5054794;28;20651;-58
2021/12/22 06:19:04;;;;;;;38.47;22.95;;;-1.60;99.90;;;;;;5054246;28;20043;-55
2021/12/22 06:21:49;;;;;;;38.95;23.02;;;-1.50;99.90;;;;;;5054819;28;20028;-51
2021/12/22 06:24:34;;;;;;;37.22;20.25;;;-1.40;99.90;;;;;;5053711;28;20451;-53
2021/12/22 06:27:18;;;;;;;37.40;20.88;;;-1.30;99.90;;;;;;5052784;28;20064;-53
2021/12/22 06:30:05;;;;;;;51.22;22.00;;;-1.20;99.90;;;;;;5053054;28;20043;-54
2021/12/22 06:32:51;;;;;;;33.67;20.13;;;-1.10;99.90;;;;;;5053175;28;20035;-50
2021/12/22 06:35:35;;;;;;;36.13;20.08;;;-1.00;99.90;;;;;;5053024;28;20036;-53
2021/12/22 06:38:20;;;;;;;89.10;44.38;;;-0.90;99.90;;;;;;5053275;28;20071;-53
2021/12/22 06:41:04;;;;;;;44.20;23.80;;;-1.00;99.90;;;;;;5053072;28;20059;-50
2021/12/22 06:43:48;;;;;;;37.20;20.95;;;-1.00;99.90;;;;;;5038189;28;20403;-48
2021/12/22 06:46:32;;;;;;;41.60;23.00;;;-1.00;99.90;;;;;;5053799;28;20078;-50
2021/12/22 06:49:17;;;;;;;30.33;18.67;;;-1.00;99.90;;;;;;5052757;28;20064;-56
2021/12/22 06:52:01;;;;;;;35.03;19.77;;;-1.00;99.90;;;;;;5052412;28;20110;-58
2021/12/22 06:54:46;;;;;;;47.53;27.10;;;-1.00;99.90;;;;;;5053366;28;20067;-55
2021/12/22 06:57:32;;;;;;;33.60;20.90;;;-1.10;99.90;;;;;;5053054;28;20036;-51
2021/12/22 07:00:17;;;;;;;37.42;19.80;;;-1.20;99.90;;;;;;5051545;28;20067;-51
2021/12/22 07:03:04;;;;;;;;;;;-1.20;99.90;;;;;;5050822;28;20060;-53
2021/12/22 07:05:48;;;;;;;34.35;20.73;;;-1.20;99.90;;;;;;5046200;28;19970;-53
2021/12/22 07:08:32;;;;;;;39.22;20.65;;;-1.20;99.90;;;;;;5043576;28;20090;-51
2021/12/22 07:11:17;;;;;;;38.22;20.15;;;-1.20;99.90;;;;;;5047798;28;20460;-49
2021/12/22 07:14:02;;;;;;;32.65;19.13;;;-1.20;99.90;;;;;;5039296;28;20039;-54
2021/12/22 07:16:46;;;;;;;43.95;20.02;;;-1.10;99.90;;;;;;5056149;28;20032;-53
2021/12/22 07:19:30;;;;;;;28.33;19.35;;;-1.10;99.90;;;;;;5055762;28;20032;-50
2021/12/22 07:22:14;;;;;;;31.15;18.25;;;-1.10;99.90;;;;;;5049970;28;20561;-50
2021/12/22 07:24:59;;;;;;;37.88;23.38;;;-1.10;99.90;;;;;;5049500;28;20523;-54
2021/12/22 07:27:43;;;;;;;35.30;20.00;;;-1.10;99.90;;;;;;5052879;28;20031;-54
2021/12/22 07:30:27;;;;;;;37.00;19.92;;;-1.10;99.90;;;;;;5054436;28;20058;-55
2021/12/22 07:33:11;;;;;;;33.25;18.52;;;-1.10;99.90;;;;;;5055171;28;20031;-56
2021/12/22 07:36:02;;;;;;;28.58;17.15;;;-1.10;99.90;;;;;;5050289;28;20118;-50
2021/12/22 07:38:59;;;;;;;36.95;18.42;;;-1.10;99.90;;;;;;5056493;28;20078;-52
2021/12/22 07:41:43;;;;;;;40.83;19.45;;;-1.00;99.90;;;;;;5053697;28;20442;-55
2021/12/22 07:44:27;;;;;;;31.65;17.05;;;-1.00;99.90;;;;;;5055862;28;20116;-51
2021/12/22 07:47:11;;;;;;;32.03;18.67;;;-1.00;99.90;;;;;;5055207;28;20040;-52
2021/12/22 07:49:56;;;;;;;31.10;16.77;;;-0.90;99.90;;;;;;5052858;28;20385;-50
2021/12/22 07:52:40;;;;;;;28.93;17.07;;;-0.90;99.90;;;;;;5039585;28;20037;-54
2021/12/22 07:55:24;;;;;;;26.80;16.85;;;-0.80;99.90;;;;;;5046232;28;20051;-55
2021/12/22 07:58:08;;;;;;;31.75;17.58;;;-0.80;99.90;;;;;;5044151;28;20068;-50
2021/12/22 08:00:55;;;;;;;24.33;16.02;;;-0.80;99.90;;;;;;5055175;28;20067;-57
2021/12/22 08:03:39;;;;;;;26.17;16.15;;;-0.80;99.90;;;;;;5054759;28;20087;-52
2021/12/22 08:06:23;;;;;;;31.05;16.40;;;-0.70;99.90;;;;;;5039759;28;20439;-54
2021/12/22 08:09:08;;;;;;;36.60;22.53;;;-0.70;99.90;;;;;;5052450;28;20506;-52
2021/12/22 08:11:55;;;;;;;37.75;20.23;;;-0.60;99.90;;;;;;5049094;28;20259;-56
2021/12/22 08:14:39;;;;;;;25.85;16.27;;;-0.60;99.90;;;;;;5046325;28;20051;-56
2021/12/22 08:17:27;;;;;;;26.48;16.17;;;-0.50;99.90;;;;;;5046584;28;20040;-55
2021/12/22 08:20:12;;;;;;;33.15;17.15;;;-0.50;99.90;;;;;;5037373;28;20048;-54
2021/12/22 08:22:56;;;;;;;26.33;16.67;;;-0.40;99.90;;;;;;5042892;28;20083;-50
2021/12/22 08:25:40;;;;;;;27.02;15.85;;;-0.40;99.90;;;;;;5036150;28;20039;-53
2021/12/22 08:28:24;;;;;;;30.23;18.52;;;-0.40;99.90;;;;;;5039376;28;20086;-54
2021/12/22 08:31:08;;;;;;;60.80;32.63;;;-0.40;99.90;;;;;;5054238;28;20040;-56
2021/12/22 08:33:54;;;;;;;28.42;18.50;;;-0.50;99.90;;;;;;5034250;28;20040;-54
2021/12/22 08:39:42;;;;;;;30.10;17.90;;;-0.60;99.90;;;;;;5042120;28;20052;-54
2021/12/22 08:42:27;;;;;;;28.10;16.85;;;-0.60;99.90;;;;;;5043911;28;20031;-55
2021/12/22 08:45:12;;;;;;;;;;;-0.70;99.90;;;;;;5051126;28;20032;-57
2021/12/22 08:47:56;;;;;;;35.08;21.70;;;-0.60;99.90;;;;;;5034425;28;20414;-52
2021/12/22 08:50:40;;;;;;;31.75;19.85;;;-0.60;99.90;;;;;;5039578;28;20036;-57
2021/12/22 08:53:24;;;;;;;36.47;20.50;;;-0.60;99.90;;;;;;5042855;28;20086;-56
2021/12/22 08:56:09;;;;;;;37.83;20.33;;;-0.70;99.90;;;;;;5040756;28;20048;-55
2021/12/22 08:58:54;;;;;;;33.80;19.08;;;-0.80;99.90;;;;;;5037401;28;20075;-54
2021/12/22 09:01:38;;;;;;;;;;;-0.80;99.90;;;;;;5039656;28;20095;-56
2021/12/22 09:04:23;;;;;;;29.20;18.92;;;-0.80;99.90;;;;;;5053947;28;19931;-55
2021/12/22 09:07:07;;;;;;;34.40;19.95;;;-0.80;99.90;;;;;;5048216;28;20096;-59
2021/12/22 09:09:51;;;;;;;34.65;20.70;;;-0.90;99.90;;;;;;5050355;28;20059;-58
2021/12/22 09:12:35;;;;;;;35.03;21.60;;;-0.80;99.90;;;;;;5053514;28;20039;-61
2021/12/22 09:15:19;;;;;;;33.17;21.27;;;-0.60;99.90;;;;;;5043173;28;20078;-59
2021/12/22 09:18:04;;;;;;;31.87;20.43;;;-0.40;99.90;;;;;;5045286;28;20112;-55
2021/12/22 09:20:47;;;;;;;36.80;21.65;;;-0.50;99.90;;;;;;5053565;28;20048;-57
2021/12/22 09:23:32;;;;;;;36.22;21.13;;;-0.60;99.90;;;;;;5044585;28;20035;-57
2021/12/22 09:26:16;;;;;;;33.60;21.45;;;-0.70;99.90;;;;;;5052598;28;20075;-58
2021/12/22 09:29:02;;;;;;;30.05;20.27;;;-0.70;99.90;;;;;;5033885;28;20040;-59
2021/12/22 09:31:46;;;;;;;;;;;-0.60;99.90;;;;;;5046945;28;20407;-59
2021/12/22 09:34:30;;;;;;;35.88;20.05;;;-0.60;99.90;;;;;;5053310;28;19911;-58
2021/12/22 09:37:14;;;;;;;36.17;21.05;;;-0.60;99.90;;;;;;5052771;28;20483;-58
2021/12/22 09:39:59;;;;;;;35.17;21.05;;;-0.70;99.90;;;;;;5037901;28;20450;-59
2021/12/22 09:42:43;;;;;;;31.75;21.42;;;-0.70;99.90;;;;;;5053362;28;20499;-58
2021/12/22 09:45:28;;;;;;;32.80;20.58;;;-0.70;99.90;;;;;;5053526;28;20032;-56
2021/12/22 09:53:51;;;;;;;34.78;21.58;;;-0.80;99.90;;;;;;5052464;28;20071;-57
2021/12/22 09:56:39;;;;;;;35.90;20.55;;;-0.70;99.90;;;;;;5053159;28;20159;-58
2021/12/22 09:59:24;;;;;;;34.55;20.63;;;-0.80;99.90;;;;;;5053110;28;20135;-59
2021/12/22 10:02:08;;;;;;;33.23;19.60;;;-0.80;99.90;;;;;;5037757;28;20067;-60
2021/12/22 10:04:52;;;;;;;33.25;19.77;;;-0.80;99.90;;;;;;5052527;28;20063;-57
2021/12/22 10:07:38;;;;;;;35.03;20.45;;;-0.80;99.90;;;;;;5050426;28;20546;-59
2021/12/22 10:10:29;;;;;;;35.65;20.73;;;-0.80;99.90;;;;;;5044791;28;20150;-56
2021/12/22 10:13:23;;;;;;;31.50;19.50;;;-0.70;99.90;;;;;;5048668;28;20027;-58
2021/12/22 10:16:19;;;;;;;35.45;20.88;;;-0.70;99.90;;;;;;5045057;28;20055;-58
2021/12/22 10:19:09;;;;;;;30.63;20.48;;;-0.60;99.90;;;;;;5039651;28;20040;-58
2021/12/22 10:22:02;;;;;;;31.85;20.25;;;-0.50;99.90;;;;;;5048510;28;20048;-57
2021/12/22 10:24:46;;;;;;;31.23;20.92;;;-0.40;99.90;;;;;;5044305;28;20072;-56
2021/12/22 10:27:30;;;;;;;31.27;19.52;;;-0.30;99.90;;;;;;5035806;28;20067;-58
2021/12/22 10:30:32;;;;;;;31.98;19.27;;;-0.50;99.90;;;;;;5050455;28;20555;-57
2021/12/22 10:33:19;;;;;;;32.67;20.92;;;-0.50;99.90;;;;;;5050597;28;20088;-55
2021/12/22 10:36:13;;;;;;;33.85;20.25;;;-0.40;99.90;;;;;;5051601;28;20519;-59
2021/12/22 10:39:00;;;;;;;33.67;21.83;;;-0.50;99.90;;;;;;5051624;28;20067;-55
2021/12/22 10:41:44;;;;;;;31.33;21.40;;;-0.50;99.90;;;;;;5052428;28;20079;-58
2021/12/22 10:44:36;;;;;;;33.65;22.52;;;-0.40;99.90;;;;;;5049328;28;20063;-58
2021/12/22 10:47:33;;;;;;;32.22;20.65;;;-0.40;99.90;;;;;;5051672;28;20036;-57
2021/12/22 10:50:23;;;;;;;34.15;21.27;;;-0.60;99.90;;;;;;5038429;28;20032;-56
2021/12/22 10:53:09;;;;;;;36.33;21.23;;;-0.60;99.90;;;;;;5052173;28;20036;-59
2021/12/22 10:55:56;;;;;;;35.85;21.70;;;-0.50;99.90;;;;;;5051217;28;20087;-57
2021/12/22 10:58:40;;;;;;;32.03;19.92;;;-0.50;99.90;;;;;;5056733;28;20112;-58
2021/12/22 11:01:24;;;;;;;32.95;19.52;;;-0.70;99.90;;;;;;5056761;28;20059;-59
2021/12/22 11:04:19;;;;;;;29.98;18.88;;;-0.60;99.90;;;;;;5056268;28;20087;-54
2021/12/22 11:07:21;;;;;;;33.08;19.95;;;-0.50;99.90;;;;;;5056165;28;20075;-59
2021/12/22 11:10:28;;;;;;;31.02;18.95;;;-0.50;99.90;;;;;;5056646;28;20036;-61
2021/12/22 11:13:18;;;;;;;30.58;20.48;;;-0.50;99.90;;;;;;5055681;28;20040;-57
2021/12/22 11:16:02;;;;;;;33.25;21.52;;;-0.50;99.90;;;;;;5056771;28;20069;-59
2021/12/22 11:18:46;;;;;;;37.70;22.98;;;-0.50;99.90;;;;;;5056024;28;20078;-62
2021/12/22 11:21:31;;;;;;;37.65;22.90;;;-0.60;99.90;;;;;;5023382;28;20177;-60
2021/12/22 11:24:15;;;;;;;38.90;23.17;;;-0.70;99.90;;;;;;5055305;28;20044;-56
2021/12/22 11:26:59;;;;;;;37.90;23.50;;;-0.70;99.90;;;;;;5055527;28;20075;-58
2021/12/22 11:29:51;;;;;;;34.95;21.92;;;-0.50;99.90;;;;;;5041581;28;20274;-59
2021/12/22 11:32:37;;;;;;;32.97;21.02;;;-0.40;99.90;;;;;;5055199;28;20033;-58
2021/12/22 11:35:22;;;;;;;34.92;21.98;;;-0.50;99.90;;;;;;5054914;28;20064;-58
2021/12/22 11:38:07;;;;;;;;;;;-0.40;99.90;;;;;;5035376;28;20143;-57
2021/12/22 11:40:56;;;;;;;38.00;22.65;;;-0.30;99.90;;;;;;5035122;28;19915;-58
2021/12/22 11:43:42;;;;;;;43.38;24.15;;;-0.30;99.90;;;;;;5035246;28;20087;-59
2021/12/22 11:46:30;;;;;;;42.10;26.65;;;-0.30;99.90;;;;;;5035321;28;20037;-60
2021/12/22 11:49:20;;;;;;;43.78;24.85;;;-0.40;99.90;;;;;;5036255;28;20147;-58
2021/12/22 11:52:43;;;;;;;49.38;28.55;;;-0.30;99.90;;;;;;5035623;28;20044;-57
2021/12/22 11:55:37;;;;;;;45.20;28.10;;;-0.40;99.90;;;;;;5044945;28;20035;-59
2021/12/22 11:58:32;;;;;;;38.53;24.48;;;-0.30;99.90;;;;;;5055510;28;20044;-55
2021/12/22 12:01:17;;;;;;;37.03;22.60;;;-0.30;99.90;;;;;;5054485;28;20495;-60
2021/12/22 12:04:12;;;;;;;35.58;22.25;;;-0.30;99.90;;;;;;5054670;28;20048;-60
2021/12/22 12:06:59;;;;;;;36.38;22.30;;;-0.30;99.90;;;;;;5055201;28;20032;-60
2021/12/22 12:09:46;;;;;;;37.67;23.17;;;-0.30;99.90;;;;;;5039387;28;20138;-56
2021/12/22 12:12:48;;;;;;;35.88;20.85;;;-0.40;99.90;;;;;;5054747;28;20112;-59
2021/12/22 12:22:35;;;;;;;36.90;22.73;;;-0.40;99.90;;;;;;5054408;28;20149;-57
2021/12/22 12:25:22;;;;;;;38.33;22.63;;;-0.40;99.90;;;;;;5055183;28;20028;-57
2021/12/22 12:28:14;;;;;;;34.83;21.40;;;-0.50;99.90;;;;;;5054373;28;20036;-57
2021/12/22 12:31:00;;;;;;;36.85;21.10;;;-0.50;99.90;;;;;;5055137;28;20710;-57
2021/12/22 12:33:45;;;;;;;35.90;21.30;;;-0.60;99.90;;;;;;5054326;28;20401;-58
2021/12/22 12:36:33;;;;;;;34.20;20.67;;;-0.40;99.90;;;;;;5039401;28;20094;-59
2021/12/22 12:39:52;;;;;;;40.78;22.38;;;-0.40;99.90;;;;;;5054366;28;20036;-56
2021/12/22 12:43:00;;;;;;;37.25;22.00;;;-0.40;99.90;;;;;;5053938;28;20023;-58
2021/12/22 12:45:48;;;;;;;30.33;20.02;;;-0.40;99.90;;;;;;5054454;28;20040;-59
2021/12/22 12:48:32;;;;;;;32.53;20.50;;;-0.30;99.90;;;;;;5074221;28;20090;-58
2021/12/22 12:51:38;;;;;;;34.65;20.92;;;-0.30;99.90;;;;;;5074797;28;20170;-57
2021/12/22 12:54:24;;;;;;;29.90;20.48;;;-0.40;99.90;;;;;;5051835;28;20036;-58
2021/12/22 12:57:14;;;;;;;33.92;20.52;;;-0.40;99.90;;;;;;5053789;28;20419;-58
2021/12/22 13:00:04;;;;;;;30.67;19.77;;;-0.30;99.90;;;;;;5054149;28;20074;-57
2021/12/22 13:03:00;;;;;;;32.38;20.95;;;-0.30;99.90;;;;;;5053939;28;20090;-58
2021/12/22 13:05:44;;;;;;;29.25;18.75;;;0.00;99.90;;;;;;5053964;28;20034;-57
2021/12/22 13:08:31;;;;;;;35.53;19.60;;;0.20;99.90;;;;;;5053497;28;20039;-58
2021/12/22 13:11:15;;;;;;;32.92;19.70;;;0.10;99.90;;;;;;5036680;28;20516;-58
2021/12/22 13:17:02;;;;;;;28.00;19.60;;;0.00;99.90;;;;;;5055861;28;20091;-55
2021/12/22 13:19:49;;;;;;;31.60;19.75;;;0.00;99.90;;;;;;5055474;28;20043;-60
2021/12/22 13:22:39;;;;;;;30.83;20.40;;;0.00;99.90;;;;;;5053135;28;20167;-55
2021/12/22 13:25:35;;;;;;;33.28;20.58;;;0.00;99.90;;;;;;5053505;28;20622;-58
2021/12/22 13:28:26;;;;;;;32.97;19.48;;;0.20;99.90;;;;;;5049353;28;20040;-58
2021/12/22 13:31:10;;;;;;;32.70;21.08;;;0.10;99.90;;;;;;5015573;28;20040;-59
2021/12/22 13:34:02;;;;;;;35.70;20.60;;;0.00;99.90;;;;;;5045808;28;20090;-57
2021/12/22 13:36:58;;;;;;;29.27;19.90;;;0.00;99.90;;;;;;5035019;28;20112;-59
2021/12/22 13:39:45;;;;;;;27.45;17.95;;;0.00;99.90;;;;;;5049071;28;20074;-58
2021/12/22 13:42:36;;;;;;;31.52;19.23;;;0.20;99.90;;;;;;5033961;28;20040;-56
2021/12/22 13:45:23;;;;;;;35.60;20.90;;;0.30;99.90;;;;;;5040446;28;20385;-58
2021/12/22 13:48:25;;;;;;;32.22;20.02;;;0.00;99.90;;;;;;5032404;28;20055;-58
2021/12/22 13:51:13;;;;;;;28.55;19.17;;;0.00;99.90;;;;;;5019487;28;20063;-57
2021/12/22 13:53:57;;;;;;;35.00;20.67;;;-0.10;99.90;;;;;;5051973;28;20094;-59
2021/12/22 13:56:43;;;;;;;31.63;20.13;;;0.00;99.90;;;;;;5046527;28;20511;-56
2021/12/22 13:59:35;;;;;;;30.38;20.27;;;0.10;99.90;;;;;;5031973;28;20115;-60
2021/12/22 14:02:36;;;;;;;36.63;21.30;;;0.20;99.90;;;;;;5048706;28;20110;-56
2021/12/22 14:05:20;;;;;;;30.05;20.35;;;0.20;99.90;;;;;;5043348;28;20042;-57
2021/12/22 14:08:23;;;;;;;29.80;19.80;;;0.30;99.90;;;;;;5037602;28;20079;-58
2021/12/22 14:11:30;;;;;;;29.45;20.38;;;0.30;99.90;;;;;;5049075;28;20507;-58
2021/12/22 14:14:32;;;;;;;31.33;20.83;;;0.20;99.90;;;;;;5052347;28;20087;-59
2021/12/22 14:17:32;;;;;;;29.95;19.13;;;0.10;99.90;;;;;;5045789;28;20040;-59
2021/12/22 14:20:21;;;;;;;29.65;19.98;;;0.10;99.90;;;;;;5052467;28;20032;-58
2021/12/22 14:23:05;;;;;;;30.33;19.13;;;0.00;99.90;;;;;;5054724;28;20083;-58
2021/12/22 14:25:51;;;;;;;32.15;20.52;;;-0.10;99.90;;;;;;5057484;28;20095;-58
2021/12/22 14:28:36;;;;;;;31.75;20.55;;;-0.20;99.90;;;;;;5034925;28;20036;-55
2021/12/22 14:31:22;;;;;;;34.05;20.80;;;-0.20;99.90;;;;;;5052906;28;20043;-54
2021/12/22 14:34:08;;;;;;;35.03;21.50;;;-0.20;99.90;;;;;;5056943;28;20035;-56
2021/12/22 14:36:53;;;;;;;28.38;19.30;;;-0.30;99.90;;;;;;5056575;28;20032;-57
2021/12/22 14:39:38;;;;;;;28.85;19.88;;;-0.40;99.90;;;;;;5056608;28;20032;-54
2021/12/22 14:42:27;;;;;;;33.58;19.50;;;-0.40;99.90;;;;;;5056793;28;20416;-54
2021/12/22 14:45:22;;;;;;;32.10;19.83;;;-0.50;99.90;;;;;;5056351;28;20110;-54